Portada
METAR-TAF:

METAR-TAF

Aeropuertos :

Bizerta, Túnez

latitud: 37-15N, longitud: 009-48E, altitud: 5 m

Observación

El informe se hizo hace 59 minutos, a las 13:00 UTC
Viento 17 kt del oeste-noroeste
Temperatura 26°C
Humedad 48%
Presión 1019 hPa
Visibilidad 10 km o más
Escasas nubes a una altura de 2000 ft

METAR: DTTB 131300Z 30017KT 9999 FEW020 26/14 Q1019

Hora: 14:59 (13:59 UTC)

Pronóstico

El informe se hizo hace 1 hora y 59 minutos, a las 12:00 UTC
Pronóstico válido del 13 a las 13 UTC al 13 a las 22 UTC
Viento 15 kt del oeste-noroeste
Visibilidad 10 km o más
Escasas nubes a una altura de 2000 ft

TAF: DTTB 131200Z 1313/1322 30015KT 9999 FEW020

Observaciones y pronósticos meteorológicos de más de 4000 aeropuertos (mensajes METAR y TAF).

Los puntos amarillos y rojos representan las estaciones disponibles.

Ponga el ratón en el punto deseado para ver el nombre de la estación.

Haga clic para ver las observaciones y los pronósticos meteorológicos.

Para cambiar el mapa : haga clic en los botones verdes con una cruz de color negro para hacer un zoom, en el botón verde con un guión para alejar o en las flechas verdes para mapas adyacentes.


METAR-TAF: